sensor_id;sensor_type;location;lat;lon;timestamp;P1;durP1;ratioP1;P2;durP2;ratioP2
25449;SDS011;13371;52.080;5.624;2022-08-01T00:00:04;14.18;;;9.57;;
25449;SDS011;13371;52.080;5.624;2022-08-01T00:02:31;18.45;;;9.07;;
25449;SDS011;13371;52.080;5.624;2022-08-01T00:04:57;23.05;;;9.15;;
25449;SDS011;13371;52.080;5.624;2022-08-01T00:07:22;17.35;;;10.40;;
25449;SDS011;13371;52.080;5.624;2022-08-01T00:09:48;15.43;;;9.23;;
25449;SDS011;13371;52.080;5.624;2022-08-01T00:12:14;15.50;;;10.00;;
25449;SDS011;13371;52.080;5.624;2022-08-01T00:14:39;15.75;;;9.85;;
25449;SDS011;13371;52.080;5.624;2022-08-01T00:17:05;16.88;;;10.13;;
25449;SDS011;13371;52.080;5.624;2022-08-01T00:19:30;16.38;;;9.65;;
25449;SDS011;13371;52.080;5.624;2022-08-01T00:21:56;15.75;;;9.82;;
25449;SDS011;13371;52.080;5.624;2022-08-01T00:24:22;16.35;;;9.82;;
25449;SDS011;13371;52.080;5.624;2022-08-01T00:26:47;13.70;;;8.77;;
25449;SDS011;13371;52.080;5.624;2022-08-01T00:29:13;12.88;;;8.25;;
25449;SDS011;13371;52.080;5.624;2022-08-01T00:31:38;15.90;;;9.30;;
25449;SDS011;13371;52.080;5.624;2022-08-01T00:34:04;13.93;;;8.07;;
25449;SDS011;13371;52.080;5.624;2022-08-01T00:36:30;13.68;;;7.70;;
25449;SDS011;13371;52.080;5.624;2022-08-01T00:38:55;12.65;;;8.32;;
25449;SDS011;13371;52.080;5.624;2022-08-01T00:41:21;15.27;;;8.25;;
25449;SDS011;13371;52.080;5.624;2022-08-01T00:43:46;12.73;;;8.00;;
25449;SDS011;13371;52.080;5.624;2022-08-01T00:46:12;9.88;;;6.78;;
25449;SDS011;13371;52.080;5.624;2022-08-01T00:48:38;13.57;;;7.13;;
25449;SDS011;13371;52.080;5.624;2022-08-01T00:51:03;11.50;;;6.90;;
25449;SDS011;13371;52.080;5.624;2022-08-01T00:53:29;12.82;;;6.70;;
25449;SDS011;13371;52.080;5.624;2022-08-01T00:55:55;9.82;;;6.32;;
25449;SDS011;13371;52.080;5.624;2022-08-01T00:58:21;11.43;;;6.85;;
25449;SDS011;13371;52.080;5.624;2022-08-01T01:00:47;12.98;;;6.95;;
25449;SDS011;13371;52.080;5.624;2022-08-01T01:03:13;9.40;;;6.43;;
25449;SDS011;13371;52.080;5.624;2022-08-01T01:05:48;9.70;;;6.55;;
25449;SDS011;13371;52.080;5.624;2022-08-01T01:08:32;10.63;;;6.60;;
25449;SDS011;13371;52.080;5.624;2022-08-01T01:11:07;11.00;;;7.18;;
25449;SDS011;13371;52.080;5.624;2022-08-01T01:13:38;11.05;;;6.78;;
25449;SDS011;13371;52.080;5.624;2022-08-01T01:16:10;12.18;;;6.78;;
25449;SDS011;13371;52.080;5.624;2022-08-01T01:18:43;11.75;;;7.18;;
25449;SDS011;13371;52.080;5.624;2022-08-01T01:26:31;12.32;;;7.05;;
25449;SDS011;13371;52.080;5.624;2022-08-01T01:29:11;14.82;;;7.47;;
25449;SDS011;13371;52.080;5.624;2022-08-01T01:34:07;14.63;;;7.55;;
25449;SDS011;13371;52.080;5.624;2022-08-01T01:36:36;12.65;;;7.50;;
25449;SDS011;13371;52.080;5.624;2022-08-01T01:39:03;15.20;;;7.78;;
25449;SDS011;13371;52.080;5.624;2022-08-01T01:41:28;18.00;;;7.75;;
25449;SDS011;13371;52.080;5.624;2022-08-01T01:43:55;14.25;;;7.38;;
25449;SDS011;13371;52.080;5.624;2022-08-01T01:46:23;13.63;;;7.80;;
25449;SDS011;13371;52.080;5.624;2022-08-01T01:48:52;13.30;;;6.97;;
25449;SDS011;13371;52.080;5.624;2022-08-01T01:51:21;15.43;;;7.45;;
25449;SDS011;13371;52.080;5.624;2022-08-01T01:53:48;12.77;;;7.30;;
25449;SDS011;13371;52.080;5.624;2022-08-01T01:56:16;13.68;;;7.70;;
25449;SDS011;13371;52.080;5.624;2022-08-01T01:58:43;13.50;;;7.50;;
25449;SDS011;13371;52.080;5.624;2022-08-01T02:01:10;14.18;;;7.32;;
25449;SDS011;13371;52.080;5.624;2022-08-01T02:03:36;13.35;;;7.13;;
25449;SDS011;13371;52.080;5.624;2022-08-01T02:06:05;14.20;;;7.65;;
25449;SDS011;13371;52.080;5.624;2022-08-01T02:08:31;13.73;;;7.07;;
25449;SDS011;13371;52.080;5.624;2022-08-01T02:10:59;13.25;;;7.97;;
25449;SDS011;13371;52.080;5.624;2022-08-01T02:13:48;10.80;;;7.03;;
25449;SDS011;13371;52.080;5.624;2022-08-01T02:16:21;12.27;;;7.28;;
25449;SDS011;13371;52.080;5.624;2022-08-01T02:18:49;14.48;;;7.65;;
25449;SDS011;13371;52.080;5.624;2022-08-01T02:21:16;12.10;;;6.97;;
25449;SDS011;13371;52.080;5.624;2022-08-01T02:23:48;14.85;;;7.85;;
25449;SDS011;13371;52.080;5.624;2022-08-01T02:26:16;13.63;;;7.95;;
25449;SDS011;13371;52.080;5.624;2022-08-01T02:31:15;14.02;;;7.85;;
25449;SDS011;13371;52.080;5.624;2022-08-01T02:33:44;14.70;;;7.35;;
25449;SDS011;13371;52.080;5.624;2022-08-01T02:36:14;11.52;;;6.25;;
25449;SDS011;13371;52.080;5.624;2022-08-01T02:38:42;17.10;;;7.47;;
25449;SDS011;13371;52.080;5.624;2022-08-01T02:41:13;12.30;;;6.68;;
25449;SDS011;13371;52.080;5.624;2022-08-01T02:43:45;14.20;;;7.35;;
25449;SDS011;13371;52.080;5.624;2022-08-01T02:46:17;11.60;;;6.95;;
25449;SDS011;13371;52.080;5.624;2022-08-01T02:48:52;12.98;;;6.35;;
25449;SDS011;13371;52.080;5.624;2022-08-01T02:51:21;13.85;;;5.72;;
25449;SDS011;13371;52.080;5.624;2022-08-01T02:53:48;11.15;;;5.93;;
25449;SDS011;13371;52.080;5.624;2022-08-01T02:56:17;10.85;;;5.32;;
25449;SDS011;13371;52.080;5.624;2022-08-01T02:58:43;9.98;;;5.63;;
25449;SDS011;13371;52.080;5.624;2022-08-01T03:01:10;9.50;;;5.20;;
25449;SDS011;13371;52.080;5.624;2022-08-01T03:03:38;7.55;;;4.88;;
25449;SDS011;13371;52.080;5.624;2022-08-01T03:06:04;8.07;;;4.95;;
25449;SDS011;13371;52.080;5.624;2022-08-01T03:08:30;11.95;;;5.22;;
25449;SDS011;13371;52.080;5.624;2022-08-01T03:10:57;8.30;;;5.47;;
25449;SDS011;13371;52.080;5.624;2022-08-01T03:13:25;13.93;;;6.30;;
25449;SDS011;13371;52.080;5.624;2022-08-01T03:15:54;10.90;;;6.28;;
25449;SDS011;13371;52.080;5.624;2022-08-01T03:18:22;12.48;;;6.63;;
25449;SDS011;13371;52.080;5.624;2022-08-01T03:20:50;13.18;;;6.78;;
25449;SDS011;13371;52.080;5.624;2022-08-01T03:23:19;12.27;;;7.28;;
25449;SDS011;13371;52.080;5.624;2022-08-01T03:25:47;13.20;;;6.78;;
25449;SDS011;13371;52.080;5.624;2022-08-01T03:28:15;9.88;;;6.22;;
25449;SDS011;13371;52.080;5.624;2022-08-01T03:30:42;14.20;;;7.65;;
25449;SDS011;13371;52.080;5.624;2022-08-01T03:33:08;10.18;;;6.63;;
25449;SDS011;13371;52.080;5.624;2022-08-01T03:35:37;12.02;;;7.13;;
25449;SDS011;13371;52.080;5.624;2022-08-01T03:38:08;10.00;;;7.03;;
25449;SDS011;13371;52.080;5.624;2022-08-01T03:40:41;13.18;;;6.85;;
25449;SDS011;13371;52.080;5.624;2022-08-01T03:43:26;13.25;;;6.63;;
25449;SDS011;13371;52.080;5.624;2022-08-01T03:46:06;12.80;;;6.47;;
25449;SDS011;13371;52.080;5.624;2022-08-01T03:48:35;10.15;;;6.40;;
25449;SDS011;13371;52.080;5.624;2022-08-01T03:51:04;13.38;;;7.60;;
25449;SDS011;13371;52.080;5.624;2022-08-01T03:53:32;15.45;;;7.05;;
25449;SDS011;13371;52.080;5.624;2022-08-01T03:56:00;12.88;;;7.22;;
25449;SDS011;13371;52.080;5.624;2022-08-01T03:58:27;9.70;;;6.22;;
25449;SDS011;13371;52.080;5.624;2022-08-01T04:00:54;13.05;;;6.35;;
25449;SDS011;13371;52.080;5.624;2022-08-01T04:03:20;10.20;;;6.20;;
25449;SDS011;13371;52.080;5.624;2022-08-01T04:05:47;11.82;;;6.93;;
25449;SDS011;13371;52.080;5.624;2022-08-01T04:08:13;13.30;;;6.68;;
25449;SDS011;13371;52.080;5.624;2022-08-01T04:10:38;15.40;;;7.53;;
25449;SDS011;13371;52.080;5.624;2022-08-01T04:13:04;11.40;;;6.85;;
25449;SDS011;13371;52.080;5.624;2022-08-01T04:15:29;15.07;;;7.82;;
25449;SDS011;13371;52.080;5.624;2022-08-01T04:17:55;13.90;;;7.32;;
25449;SDS011;13371;52.080;5.624;2022-08-01T04:20:21;14.55;;;7.32;;
25449;SDS011;13371;52.080;5.624;2022-08-01T04:22:46;12.05;;;7.68;;
25449;SDS011;13371;52.080;5.624;2022-08-01T04:25:13;14.23;;;6.80;;
25449;SDS011;13371;52.080;5.624;2022-08-01T04:27:43;12.73;;;7.18;;
25449;SDS011;13371;52.080;5.624;2022-08-01T04:30:13;11.02;;;6.75;;
25449;SDS011;13371;52.080;5.624;2022-08-01T04:32:39;16.15;;;7.50;;
25449;SDS011;13371;52.080;5.624;2022-08-01T04:35:09;12.63;;;7.28;;
25449;SDS011;13371;52.080;5.624;2022-08-01T04:37:38;14.90;;;7.45;;
25449;SDS011;13371;52.080;5.624;2022-08-01T04:40:06;13.45;;;7.72;;
25449;SDS011;13371;52.080;5.624;2022-08-01T04:42:35;12.75;;;8.27;;
25449;SDS011;13371;52.080;5.624;2022-08-01T04:45:01;13.70;;;7.35;;
25449;SDS011;13371;52.080;5.624;2022-08-01T04:47:27;10.38;;;6.85;;
25449;SDS011;13371;52.080;5.624;2022-08-01T04:49:54;12.52;;;7.57;;
25449;SDS011;13371;52.080;5.624;2022-08-01T04:52:21;13.45;;;7.30;;
25449;SDS011;13371;52.080;5.624;2022-08-01T04:54:47;12.98;;;7.60;;
25449;SDS011;13371;52.080;5.624;2022-08-01T04:57:13;12.18;;;6.88;;
25449;SDS011;13371;52.080;5.624;2022-08-01T04:59:41;12.75;;;7.65;;
25449;SDS011;13371;52.080;5.624;2022-08-01T05:02:09;11.32;;;7.00;;
25449;SDS011;13371;52.080;5.624;2022-08-01T05:04:43;8.93;;;5.90;;
25449;SDS011;13371;52.080;5.624;2022-08-01T05:07:10;11.50;;;6.20;;
25449;SDS011;13371;52.080;5.624;2022-08-01T05:09:36;10.95;;;5.18;;
25449;SDS011;13371;52.080;5.624;2022-08-01T05:12:03;9.43;;;5.45;;
25449;SDS011;13371;52.080;5.624;2022-08-01T05:14:30;8.82;;;5.53;;
25449;SDS011;13371;52.080;5.624;2022-08-01T05:16:57;7.28;;;4.78;;
25449;SDS011;13371;52.080;5.624;2022-08-01T05:19:28;10.05;;;3.95;;
25449;SDS011;13371;52.080;5.624;2022-08-01T05:21:57;5.72;;;3.28;;
25449;SDS011;13371;52.080;5.624;2022-08-01T05:24:25;4.55;;;3.08;;
25449;SDS011;13371;52.080;5.624;2022-08-01T05:26:54;6.85;;;2.80;;
25449;SDS011;13371;52.080;5.624;2022-08-01T05:29:20;5.18;;;2.40;;
25449;SDS011;13371;52.080;5.624;2022-08-01T05:31:46;3.20;;;2.30;;
25449;SDS011;13371;52.080;5.624;2022-08-01T05:34:12;2.50;;;1.77;;
25449;SDS011;13371;52.080;5.624;2022-08-01T05:36:37;3.22;;;2.05;;
25449;SDS011;13371;52.080;5.624;2022-08-01T05:39:03;3.38;;;2.00;;
25449;SDS011;13371;52.080;5.624;2022-08-01T05:41:29;3.30;;;2.03;;
25449;SDS011;13371;52.080;5.624;2022-08-01T05:43:55;3.60;;;2.00;;
25449;SDS011;13371;52.080;5.624;2022-08-01T05:46:21;2.00;;;1.50;;
25449;SDS011;13371;52.080;5.624;2022-08-01T05:48:47;2.63;;;1.55;;
25449;SDS011;13371;52.080;5.624;2022-08-01T05:51:12;4.25;;;1.92;;
25449;SDS011;13371;52.080;5.624;2022-08-01T05:53:38;5.25;;;1.90;;
25449;SDS011;13371;52.080;5.624;2022-08-01T05:56:04;4.40;;;2.13;;
25449;SDS011;13371;52.080;5.624;2022-08-01T05:58:29;2.50;;;1.80;;
25449;SDS011;13371;52.080;5.624;2022-08-01T06:00:55;3.28;;;1.90;;
25449;SDS011;13371;52.080;5.624;2022-08-01T06:03:21;5.43;;;2.15;;
25449;SDS011;13371;52.080;5.624;2022-08-01T06:05:46;3.67;;;1.80;;
25449;SDS011;13371;52.080;5.624;2022-08-01T06:08:12;4.32;;;2.17;;
25449;SDS011;13371;52.080;5.624;2022-08-01T06:10:37;3.60;;;2.03;;
25449;SDS011;13371;52.080;5.624;2022-08-01T06:13:03;2.83;;;1.88;;
25449;SDS011;13371;52.080;5.624;2022-08-01T06:15:29;5.10;;;2.00;;
25449;SDS011;13371;52.080;5.624;2022-08-01T06:17:55;2.92;;;1.90;;
25449;SDS011;13371;52.080;5.624;2022-08-01T06:20:21;2.85;;;2.10;;
25449;SDS011;13371;52.080;5.624;2022-08-01T06:22:46;2.38;;;1.80;;
25449;SDS011;13371;52.080;5.624;2022-08-01T06:25:12;2.80;;;1.75;;
25449;SDS011;13371;52.080;5.624;2022-08-01T06:27:38;3.30;;;2.15;;
25449;SDS011;13371;52.080;5.624;2022-08-01T06:30:04;3.20;;;2.00;;
25449;SDS011;13371;52.080;5.624;2022-08-01T06:32:30;3.63;;;2.17;;
25449;SDS011;13371;52.080;5.624;2022-08-01T06:34:56;3.90;;;2.17;;
25449;SDS011;13371;52.080;5.624;2022-08-01T06:37:22;3.70;;;2.50;;
25449;SDS011;13371;52.080;5.624;2022-08-01T06:39:48;3.58;;;2.28;;
25449;SDS011;13371;52.080;5.624;2022-08-01T06:42:14;3.75;;;2.53;;
25449;SDS011;13371;52.080;5.624;2022-08-01T06:44:40;4.93;;;2.83;;
25449;SDS011;13371;52.080;5.624;2022-08-01T06:47:06;4.78;;;2.78;;
25449;SDS011;13371;52.080;5.624;2022-08-01T06:49:31;4.50;;;2.53;;
25449;SDS011;13371;52.080;5.624;2022-08-01T06:51:57;3.92;;;2.75;;
25449;SDS011;13371;52.080;5.624;2022-08-01T06:54:22;4.75;;;2.65;;
25449;SDS011;13371;52.080;5.624;2022-08-01T06:56:48;7.10;;;2.75;;
25449;SDS011;13371;52.080;5.624;2022-08-01T06:59:13;3.80;;;2.67;;
25449;SDS011;13371;52.080;5.624;2022-08-01T07:01:39;3.95;;;2.58;;
25449;SDS011;13371;52.080;5.624;2022-08-01T07:04:05;4.07;;;2.65;;
25449;SDS011;13371;52.080;5.624;2022-08-01T07:06:31;4.70;;;2.65;;
25449;SDS011;13371;52.080;5.624;2022-08-01T07:08:56;3.95;;;2.60;;
25449;SDS011;13371;52.080;5.624;2022-08-01T07:11:23;5.70;;;2.97;;
25449;SDS011;13371;52.080;5.624;2022-08-01T07:13:48;5.15;;;2.67;;
25449;SDS011;13371;52.080;5.624;2022-08-01T07:16:15;4.60;;;2.85;;
25449;SDS011;13371;52.080;5.624;2022-08-01T07:18:41;4.43;;;2.80;;
25449;SDS011;13371;52.080;5.624;2022-08-01T07:21:07;7.03;;;3.25;;
25449;SDS011;13371;52.080;5.624;2022-08-01T07:23:32;5.03;;;3.00;;
25449;SDS011;13371;52.080;5.624;2022-08-01T07:25:58;4.47;;;2.85;;
25449;SDS011;13371;52.080;5.624;2022-08-01T07:28:26;5.25;;;3.42;;
25449;SDS011;13371;52.080;5.624;2022-08-01T07:30:55;4.32;;;3.00;;
25449;SDS011;13371;52.080;5.624;2022-08-01T07:33:20;5.28;;;3.33;;
25449;SDS011;13371;52.080;5.624;2022-08-01T07:35:47;4.65;;;2.85;;
25449;SDS011;13371;52.080;5.624;2022-08-01T07:38:13;4.95;;;3.13;;
25449;SDS011;13371;52.080;5.624;2022-08-01T07:40:41;5.40;;;2.92;;
25449;SDS011;13371;52.080;5.624;2022-08-01T07:43:07;7.25;;;2.75;;
25449;SDS011;13371;52.080;5.624;2022-08-01T07:45:33;4.78;;;3.05;;
25449;SDS011;13371;52.080;5.624;2022-08-01T07:48:02;5.07;;;3.08;;
25449;SDS011;13371;52.080;5.624;2022-08-01T07:50:29;4.97;;;3.38;;
25449;SDS011;13371;52.080;5.624;2022-08-01T07:52:55;5.07;;;2.63;;
25449;SDS011;13371;52.080;5.624;2022-08-01T07:55:20;5.45;;;2.95;;
25449;SDS011;13371;52.080;5.624;2022-08-01T07:57:46;3.90;;;2.78;;
25449;SDS011;13371;52.080;5.624;2022-08-01T08:00:11;6.00;;;3.00;;
25449;SDS011;13371;52.080;5.624;2022-08-01T08:02:38;8.77;;;3.83;;
25449;SDS011;13371;52.080;5.624;2022-08-01T08:05:03;5.53;;;3.35;;
25449;SDS011;13371;52.080;5.624;2022-08-01T08:07:29;5.70;;;2.80;;
25449;SDS011;13371;52.080;5.624;2022-08-01T08:09:55;4.38;;;2.22;;
25449;SDS011;13371;52.080;5.624;2022-08-01T08:12:21;4.75;;;2.88;;
25449;SDS011;13371;52.080;5.624;2022-08-01T08:14:46;7.15;;;3.20;;
25449;SDS011;13371;52.080;5.624;2022-08-01T08:17:12;6.65;;;2.95;;
25449;SDS011;13371;52.080;5.624;2022-08-01T08:19:37;6.20;;;2.60;;
25449;SDS011;13371;52.080;5.624;2022-08-01T08:22:05;6.43;;;2.92;;
25449;SDS011;13371;52.080;5.624;2022-08-01T08:24:31;9.05;;;3.28;;
25449;SDS011;13371;52.080;5.624;2022-08-01T08:26:57;7.40;;;2.88;;
25449;SDS011;13371;52.080;5.624;2022-08-01T08:29:24;8.52;;;3.97;;
25449;SDS011;13371;52.080;5.624;2022-08-01T08:31:52;8.30;;;3.60;;
25449;SDS011;13371;52.080;5.624;2022-08-01T08:34:18;9.73;;;3.65;;
25449;SDS011;13371;52.080;5.624;2022-08-01T08:36:44;8.48;;;3.28;;
25449;SDS011;13371;52.080;5.624;2022-08-01T08:39:10;12.82;;;4.38;;
25449;SDS011;13371;52.080;5.624;2022-08-01T08:41:35;10.23;;;4.32;;
25449;SDS011;13371;52.080;5.624;2022-08-01T08:44:05;12.02;;;3.70;;
25449;SDS011;13371;52.080;5.624;2022-08-01T08:46:31;13.13;;;4.57;;
25449;SDS011;13371;52.080;5.624;2022-08-01T08:48:59;15.38;;;4.20;;
25449;SDS011;13371;52.080;5.624;2022-08-01T08:51:26;11.77;;;4.07;;
25449;SDS011;13371;52.080;5.624;2022-08-01T08:53:55;14.65;;;4.90;;
25449;SDS011;13371;52.080;5.624;2022-08-01T08:56:23;12.55;;;3.80;;
25449;SDS011;13371;52.080;5.624;2022-08-01T08:58:50;18.23;;;3.90;;
25449;SDS011;13371;52.080;5.624;2022-08-01T09:01:16;14.95;;;3.50;;
25449;SDS011;13371;52.080;5.624;2022-08-01T09:03:43;12.65;;;3.83;;
25449;SDS011;13371;52.080;5.624;2022-08-01T09:06:09;11.32;;;3.70;;
25449;SDS011;13371;52.080;5.624;2022-08-01T09:08:36;12.15;;;3.55;;
25449;SDS011;13371;52.080;5.624;2022-08-01T09:11:02;11.77;;;3.85;;
25449;SDS011;13371;52.080;5.624;2022-08-01T09:13:28;15.05;;;3.92;;
25449;SDS011;13371;52.080;5.624;2022-08-01T09:15:54;10.55;;;3.95;;
25449;SDS011;13371;52.080;5.624;2022-08-01T09:21:06;11.63;;;3.38;;
25449;SDS011;13371;52.080;5.624;2022-08-01T09:26:08;13.20;;;3.05;;
25449;SDS011;13371;52.080;5.624;2022-08-01T09:28:35;10.00;;;3.17;;
25449;SDS011;13371;52.080;5.624;2022-08-01T09:31:08;13.02;;;3.10;;
25449;SDS011;13371;52.080;5.624;2022-08-01T09:36:23;9.07;;;3.30;;
25449;SDS011;13371;52.080;5.624;2022-08-01T09:38:50;12.90;;;3.13;;
25449;SDS011;13371;52.080;5.624;2022-08-01T09:41:17;8.65;;;2.80;;
25449;SDS011;13371;52.080;5.624;2022-08-01T09:43:52;7.57;;;2.70;;
25449;SDS011;13371;52.080;5.624;2022-08-01T09:46:18;11.63;;;2.75;;
25449;SDS011;13371;52.080;5.624;2022-08-01T09:48:56;10.57;;;3.08;;
25449;SDS011;13371;52.080;5.624;2022-08-01T09:51:29;15.27;;;3.53;;
25449;SDS011;13371;52.080;5.624;2022-08-01T09:53:57;11.35;;;2.47;;
25449;SDS011;13371;52.080;5.624;2022-08-01T09:56:23;7.75;;;2.67;;
25449;SDS011;13371;52.080;5.624;2022-08-01T09:58:50;9.52;;;2.45;;
25449;SDS011;13371;52.080;5.624;2022-08-01T10:01:16;8.05;;;2.85;;
25449;SDS011;13371;52.080;5.624;2022-08-01T10:03:45;5.60;;;2.00;;
25449;SDS011;13371;52.080;5.624;2022-08-01T10:06:21;3.25;;;1.90;;
25449;SDS011;13371;52.080;5.624;2022-08-01T10:08:46;8.23;;;2.47;;
25449;SDS011;13371;52.080;5.624;2022-08-01T10:11:13;4.97;;;1.95;;
25449;SDS011;13371;52.080;5.624;2022-08-01T10:13:39;6.15;;;2.38;;
25449;SDS011;13371;52.080;5.624;2022-08-01T10:16:05;5.97;;;1.70;;
25449;SDS011;13371;52.080;5.624;2022-08-01T10:18:32;6.45;;;1.92;;
25449;SDS011;13371;52.080;5.624;2022-08-01T10:21:00;5.88;;;2.13;;
25449;SDS011;13371;52.080;5.624;2022-08-01T10:23:27;6.25;;;1.83;;
25449;SDS011;13371;52.080;5.624;2022-08-01T10:25:58;8.40;;;2.20;;
25449;SDS011;13371;52.080;5.624;2022-08-01T10:28:26;7.10;;;2.38;;
25449;SDS011;13371;52.080;5.624;2022-08-01T10:30:54;7.22;;;1.50;;
25449;SDS011;13371;52.080;5.624;2022-08-01T10:33:22;8.13;;;1.58;;
25449;SDS011;13371;52.080;5.624;2022-08-01T10:35:48;4.32;;;1.40;;
25449;SDS011;13371;52.080;5.624;2022-08-01T10:38:15;8.45;;;1.80;;
25449;SDS011;13371;52.080;5.624;2022-08-01T10:40:42;7.45;;;1.80;;
25449;SDS011;13371;52.080;5.624;2022-08-01T10:43:09;6.65;;;1.90;;
25449;SDS011;13371;52.080;5.624;2022-08-01T10:45:35;6.80;;;2.08;;
25449;SDS011;13371;52.080;5.624;2022-08-01T10:50:55;12.43;;;2.10;;
25449;SDS011;13371;52.080;5.624;2022-08-01T10:53:26;7.65;;;1.92;;
25449;SDS011;13371;52.080;5.624;2022-08-01T10:56:02;6.30;;;1.77;;
25449;SDS011;13371;52.080;5.624;2022-08-01T11:06:40;7.18;;;2.33;;
25449;SDS011;13371;52.080;5.624;2022-08-01T11:09:24;8.02;;;2.60;;
25449;SDS011;13371;52.080;5.624;2022-08-01T11:11:57;10.43;;;2.10;;
25449;SDS011;13371;52.080;5.624;2022-08-01T11:14:22;6.53;;;1.80;;
25449;SDS011;13371;52.080;5.624;2022-08-01T11:16:48;8.98;;;1.80;;
25449;SDS011;13371;52.080;5.624;2022-08-01T11:19:14;10.93;;;1.90;;
25449;SDS011;13371;52.080;5.624;2022-08-01T11:27:27;4.82;;;1.30;;
25449;SDS011;13371;52.080;5.624;2022-08-01T11:32:49;5.63;;;1.75;;
25449;SDS011;13371;52.080;5.624;2022-08-01T11:35:15;4.90;;;1.33;;
25449;SDS011;13371;52.080;5.624;2022-08-01T11:37:41;4.25;;;1.17;;
25449;SDS011;13371;52.080;5.624;2022-08-01T11:40:17;5.00;;;1.42;;
25449;SDS011;13371;52.080;5.624;2022-08-01T11:42:44;6.70;;;1.38;;
25449;SDS011;13371;52.080;5.624;2022-08-01T11:45:11;4.30;;;1.42;;
25449;SDS011;13371;52.080;5.624;2022-08-01T11:52:58;5.32;;;1.38;;
25449;SDS011;13371;52.080;5.624;2022-08-01T11:55:24;5.10;;;1.23;;
25449;SDS011;13371;52.080;5.624;2022-08-01T11:58:03;6.35;;;1.27;;
25449;SDS011;13371;52.080;5.624;2022-08-01T12:00:30;7.95;;;1.70;;
25449;SDS011;13371;52.080;5.624;2022-08-01T12:02:58;7.13;;;1.60;;
25449;SDS011;13371;52.080;5.624;2022-08-01T12:05:24;8.70;;;1.50;;
25449;SDS011;13371;52.080;5.624;2022-08-01T12:07:50;6.22;;;1.38;;
25449;SDS011;13371;52.080;5.624;2022-08-01T12:10:18;8.20;;;1.42;;
25449;SDS011;13371;52.080;5.624;2022-08-01T12:12:54;5.65;;;1.50;;
25449;SDS011;13371;52.080;5.624;2022-08-01T12:15:24;9.30;;;1.33;;
25449;SDS011;13371;52.080;5.624;2022-08-01T12:17:57;8.55;;;1.70;;
25449;SDS011;13371;52.080;5.624;2022-08-01T12:20:28;4.88;;;1.30;;
25449;SDS011;13371;52.080;5.624;2022-08-01T12:22:57;5.82;;;1.50;;
25449;SDS011;13371;52.080;5.624;2022-08-01T12:25:27;6.15;;;1.27;;
25449;SDS011;13371;52.080;5.624;2022-08-01T12:27:53;10.10;;;2.20;;
25449;SDS011;13371;52.080;5.624;2022-08-01T12:30:20;10.23;;;1.63;;
25449;SDS011;13371;52.080;5.624;2022-08-01T12:32:50;5.43;;;1.50;;
25449;SDS011;13371;52.080;5.624;2022-08-01T12:37:45;8.38;;;1.35;;
25449;SDS011;13371;52.080;5.624;2022-08-01T12:42:43;3.90;;;1.00;;
25449;SDS011;13371;52.080;5.624;2022-08-01T12:45:11;4.10;;;1.52;;
25449;SDS011;13371;52.080;5.624;2022-08-01T12:47:39;4.68;;;1.40;;
25449;SDS011;13371;52.080;5.624;2022-08-01T12:50:07;5.22;;;1.35;;
25449;SDS011;13371;52.080;5.624;2022-08-01T12:52:37;5.90;;;1.30;;
25449;SDS011;13371;52.080;5.624;2022-08-01T12:55:04;6.43;;;1.40;;
25449;SDS011;13371;52.080;5.624;2022-08-01T12:57:31;5.72;;;1.20;;
25449;SDS011;13371;52.080;5.624;2022-08-01T13:00:06;6.07;;;1.10;;
25449;SDS011;13371;52.080;5.624;2022-08-01T13:02:36;4.25;;;0.93;;
25449;SDS011;13371;52.080;5.624;2022-08-01T13:05:03;3.08;;;1.13;;
25449;SDS011;13371;52.080;5.624;2022-08-01T13:07:48;6.07;;;1.15;;
25449;SDS011;13371;52.080;5.624;2022-08-01T13:10:23;3.08;;;1.00;;
25449;SDS011;13371;52.080;5.624;2022-08-01T13:12:52;3.53;;;0.98;;
25449;SDS011;13371;52.080;5.624;2022-08-01T13:15:23;5.22;;;1.13;;
25449;SDS011;13371;52.080;5.624;2022-08-01T13:17:51;3.65;;;0.90;;
25449;SDS011;13371;52.080;5.624;2022-08-01T13:20:25;3.80;;;0.93;;
25449;SDS011;13371;52.080;5.624;2022-08-01T13:22:53;4.60;;;1.10;;
25449;SDS011;13371;52.080;5.624;2022-08-01T13:25:19;3.95;;;1.15;;
25449;SDS011;13371;52.080;5.624;2022-08-01T13:27:45;3.08;;;1.10;;
25449;SDS011;13371;52.080;5.624;2022-08-01T13:30:14;2.58;;;0.70;;
25449;SDS011;13371;52.080;5.624;2022-08-01T13:32:40;4.88;;;0.80;;
25449;SDS011;13371;52.080;5.624;2022-08-01T13:35:09;3.10;;;0.90;;
25449;SDS011;13371;52.080;5.624;2022-08-01T13:37:40;4.88;;;1.10;;
25449;SDS011;13371;52.080;5.624;2022-08-01T13:40:08;2.15;;;1.05;;
25449;SDS011;13371;52.080;5.624;2022-08-01T13:42:35;9.43;;;1.00;;
25449;SDS011;13371;52.080;5.624;2022-08-01T13:45:02;2.45;;;0.70;;
25449;SDS011;13371;52.080;5.624;2022-08-01T13:47:32;2.05;;;0.82;;
25449;SDS011;13371;52.080;5.624;2022-08-01T13:50:00;1.73;;;0.70;;
25449;SDS011;13371;52.080;5.624;2022-08-01T13:52:27;3.38;;;0.50;;
25449;SDS011;13371;52.080;5.624;2022-08-01T13:54:53;2.67;;;0.73;;
25449;SDS011;13371;52.080;5.624;2022-08-01T13:57:19;4.05;;;0.80;;
25449;SDS011;13371;52.080;5.624;2022-08-01T13:59:45;4.00;;;1.00;;
25449;SDS011;13371;52.080;5.624;2022-08-01T14:02:11;4.28;;;0.73;;
25449;SDS011;13371;52.080;5.624;2022-08-01T14:04:36;2.63;;;0.60;;
25449;SDS011;13371;52.080;5.624;2022-08-01T14:07:02;2.05;;;0.60;;
25449;SDS011;13371;52.080;5.624;2022-08-01T14:09:27;3.47;;;1.50;;
25449;SDS011;13371;52.080;5.624;2022-08-01T14:11:53;1.63;;;0.60;;
25449;SDS011;13371;52.080;5.624;2022-08-01T14:14:18;1.80;;;0.70;;
25449;SDS011;13371;52.080;5.624;2022-08-01T14:16:44;2.28;;;0.77;;
25449;SDS011;13371;52.080;5.624;2022-08-01T14:19:10;4.05;;;0.98;;
25449;SDS011;13371;52.080;5.624;2022-08-01T14:21:36;5.20;;;1.00;;
25449;SDS011;13371;52.080;5.624;2022-08-01T14:24:01;2.42;;;0.70;;
25449;SDS011;13371;52.080;5.624;2022-08-01T14:26:27;2.80;;;0.70;;
25449;SDS011;13371;52.080;5.624;2022-08-01T14:28:52;6.43;;;1.40;;
25449;SDS011;13371;52.080;5.624;2022-08-01T14:31:21;2.60;;;1.20;;
25449;SDS011;13371;52.080;5.624;2022-08-01T14:33:46;4.88;;;1.00;;
25449;SDS011;13371;52.080;5.624;2022-08-01T14:36:12;4.13;;;0.98;;
25449;SDS011;13371;52.080;5.624;2022-08-01T14:38:37;1.95;;;0.80;;
25449;SDS011;13371;52.080;5.624;2022-08-01T14:41:03;2.88;;;0.90;;
25449;SDS011;13371;52.080;5.624;2022-08-01T14:43:28;3.42;;;0.88;;
25449;SDS011;13371;52.080;5.624;2022-08-01T14:45:56;2.38;;;1.00;;
25449;SDS011;13371;52.080;5.624;2022-08-01T14:48:22;2.50;;;0.98;;
25449;SDS011;13371;52.080;5.624;2022-08-01T14:50:47;4.75;;;1.00;;
25449;SDS011;13371;52.080;5.624;2022-08-01T14:53:13;2.47;;;0.68;;
25449;SDS011;13371;52.080;5.624;2022-08-01T14:55:39;3.80;;;1.38;;
25449;SDS011;13371;52.080;5.624;2022-08-01T14:58:04;3.53;;;0.60;;
25449;SDS011;13371;52.080;5.624;2022-08-01T15:00:30;1.10;;;0.50;;
25449;SDS011;13371;52.080;5.624;2022-08-01T15:02:55;2.88;;;1.08;;
25449;SDS011;13371;52.080;5.624;2022-08-01T15:05:21;3.00;;;0.90;;
25449;SDS011;13371;52.080;5.624;2022-08-01T15:07:46;4.70;;;1.05;;
25449;SDS011;13371;52.080;5.624;2022-08-01T15:10:12;1.50;;;0.65;;
25449;SDS011;13371;52.080;5.624;2022-08-01T15:12:38;6.82;;;0.80;;
25449;SDS011;13371;52.080;5.624;2022-08-01T15:15:04;2.17;;;0.80;;
25449;SDS011;13371;52.080;5.624;2022-08-01T15:17:32;3.70;;;1.00;;
25449;SDS011;13371;52.080;5.624;2022-08-01T15:19:59;2.65;;;0.70;;
25449;SDS011;13371;52.080;5.624;2022-08-01T15:22:26;2.20;;;0.57;;
25449;SDS011;13371;52.080;5.624;2022-08-01T15:24:54;3.08;;;0.88;;
25449;SDS011;13371;52.080;5.624;2022-08-01T15:27:21;2.30;;;0.60;;
25449;SDS011;13371;52.080;5.624;2022-08-01T15:29:47;3.13;;;0.77;;
25449;SDS011;13371;52.080;5.624;2022-08-01T15:32:13;5.50;;;0.88;;